sensor_id;sensor_type;location;lat;lon;timestamp;P1;P2;P0
79317;PMS7003;68779;50.036;19.964;2023-05-21T00:11:39;29;25;16
79317;PMS7003;68779;50.036;19.964;2023-05-21T01:42:52;30;26;18
79317;PMS7003;68779;50.036;19.964;2023-05-21T02:43:36;30;26;16
79317;PMS7003;68779;50.036;19.964;2023-05-21T03:13:50;34;31;21
79317;PMS7003;68779;50.036;19.964;2023-05-21T03:44:03;29;24;16
79317;PMS7003;68779;50.036;19.964;2023-05-21T04:14:17;36;31;20
79317;PMS7003;68779;50.036;19.964;2023-05-21T04:44:31;24;20;15
79317;PMS7003;68779;50.036;19.964;2023-05-21T05:14:45;18;16;12
79317;PMS7003;68779;50.036;19.964;2023-05-21T05:44:59;11;11;8
79317;PMS7003;68779;50.036;19.964;2023-05-21T06:45:37;13;12;10
79317;PMS7003;68779;50.036;19.964;2023-05-21T07:15:51;19;19;15
79317;PMS7003;68779;50.036;19.964;2023-05-21T07:46:04;14;14;10
79317;PMS7003;68779;50.036;19.964;2023-05-21T08:16:18;12;11;10
79317;PMS7003;68779;50.036;19.964;2023-05-21T08:46:35;12;11;9
79317;PMS7003;68779;50.036;19.964;2023-05-21T09:16:56;22;21;16
79317;PMS7003;68779;50.036;19.964;2023-05-21T10:03:32;13;13;10
79317;PMS7003;68779;50.036;19.964;2023-05-21T10:33:58;12;12;9
79317;PMS7003;68779;50.036;19.964;2023-05-21T11:04:14;13;13;10
79317;PMS7003;68779;50.036;19.964;2023-05-21T12:05:00;10;8;6
79317;PMS7003;68779;50.036;19.964;2023-05-21T13:05:38;8;8;7
79317;PMS7003;68779;50.036;19.964;2023-05-21T13:35:54;12;12;8
79317;PMS7003;68779;50.036;19.964;2023-05-21T14:06:09;7;7;7
79317;PMS7003;68779;50.036;19.964;2023-05-21T14:36:24;6;6;5
79317;PMS7003;68779;50.036;19.964;2023-05-21T15:06:40;7;7;5
79317;PMS7003;68779;50.036;19.964;2023-05-21T15:36:54;5;5;4
79317;PMS7003;68779;50.036;19.964;2023-05-21T16:07:10;8;8;7
79317;PMS7003;68779;50.036;19.964;2023-05-21T16:37:28;11;10;8
79317;PMS7003;68779;50.036;19.964;2023-05-21T17:07:46;10;7;6
79317;PMS7003;68779;50.036;19.964;2023-05-21T17:38:01;5;5;4
79317;PMS7003;68779;50.036;19.964;2023-05-21T18:38:46;10;10;8
79317;PMS7003;68779;50.036;19.964;2023-05-21T19:09:00;10;10;8
79317;PMS7003;68779;50.036;19.964;2023-05-21T19:39:17;6;6;5
79317;PMS7003;68779;50.036;19.964;2023-05-21T20:09:30;6;6;6
79317;PMS7003;68779;50.036;19.964;2023-05-21T20:39:48;7;6;6
79317;PMS7003;68779;50.036;19.964;2023-05-21T21:10:02;7;7;6
79317;PMS7003;68779;50.036;19.964;2023-05-21T21:40:19;8;7;6
79317;PMS7003;68779;50.036;19.964;2023-05-21T22:10:35;5;5;4
79317;PMS7003;68779;50.036;19.964;2023-05-21T22:40:50;4;4;3
79317;PMS7003;68779;50.036;19.964;2023-05-21T23:11:05;8;5;4
79317;PMS7003;68779;50.036;19.964;2023-05-21T23:41:18;6;5;4
